sensor_id;sensor_type;location;lat;lon;timestamp;pressure;altitude;pressure_sealevel;temperature;humidity
50790;BME280;37287;47.554;7.844;2022-11-02T00:01:25;98602.19;;;7.96;100.00
50790;BME280;37287;47.554;7.844;2022-11-02T00:03:55;98602.59;;;7.98;100.00
50790;BME280;37287;47.554;7.844;2022-11-02T00:06:21;98600.69;;;7.99;100.00
50790;BME280;37287;47.554;7.844;2022-11-02T00:08:48;98599.22;;;8.01;100.00
50790;BME280;37287;47.554;7.844;2022-11-02T00:11:14;98599.69;;;8.03;100.00
50790;BME280;37287;47.554;7.844;2022-11-02T00:13:41;98599.69;;;8.03;100.00
50790;BME280;37287;47.554;7.844;2022-11-02T00:16:10;98602.81;;;8.05;100.00
50790;BME280;37287;47.554;7.844;2022-11-02T00:18:41;98605.16;;;8.07;100.00
50790;BME280;37287;47.554;7.844;2022-11-02T00:21:09;98611.38;;;8.07;100.00
50790;BME280;37287;47.554;7.844;2022-11-02T00:23:36;98605.63;;;8.09;100.00
50790;BME280;37287;47.554;7.844;2022-11-02T00:26:03;98593.81;;;8.14;100.00
50790;BME280;37287;47.554;7.844;2022-11-02T00:28:29;98600.44;;;8.16;100.00
50790;BME280;37287;47.554;7.844;2022-11-02T00:30:56;98606.19;;;8.15;100.00
50790;BME280;37287;47.554;7.844;2022-11-02T00:33:23;98599.56;;;8.12;100.00
50790;BME280;37287;47.554;7.844;2022-11-02T00:35:49;98594.16;;;8.12;100.00
50790;BME280;37287;47.554;7.844;2022-11-02T00:38:16;98598.88;;;8.15;100.00
50790;BME280;37287;47.554;7.844;2022-11-02T00:40:44;98598.53;;;8.17;100.00
50790;BME280;37287;47.554;7.844;2022-11-02T00:43:11;98599.31;;;8.17;100.00
50790;BME280;37287;47.554;7.844;2022-11-02T00:45:38;98607.84;;;8.19;100.00
50790;BME280;37287;47.554;7.844;2022-11-02T00:48:05;98608.28;;;8.21;100.00
50790;BME280;37287;47.554;7.844;2022-11-02T00:50:34;98613.34;;;8.23;100.00
50790;BME280;37287;47.554;7.844;2022-11-02T00:53:01;98614.91;;;8.24;100.00
50790;BME280;37287;47.554;7.844;2022-11-02T00:55:27;98633.56;;;8.29;100.00
50790;BME280;37287;47.554;7.844;2022-11-02T00:57:54;98618.16;;;8.30;100.00
50790;BME280;37287;47.554;7.844;2022-11-02T01:00:20;98622.88;;;8.33;100.00
50790;BME280;37287;47.554;7.844;2022-11-02T01:02:49;98622.19;;;8.36;100.00
50790;BME280;37287;47.554;7.844;2022-11-02T01:05:16;98617.59;;;8.36;100.00
50790;BME280;37287;47.554;7.844;2022-11-02T01:07:42;98615.22;;;8.35;100.00
50790;BME280;37287;47.554;7.844;2022-11-02T01:10:09;98618.34;;;8.37;100.00
50790;BME280;37287;47.554;7.844;2022-11-02T01:12:38;98616.88;;;8.39;100.00
50790;BME280;37287;47.554;7.844;2022-11-02T01:15:06;98617.78;;;8.43;100.00
50790;BME280;37287;47.554;7.844;2022-11-02T01:17:33;98610.50;;;8.44;100.00
50790;BME280;37287;47.554;7.844;2022-11-02T01:20:00;98617.13;;;8.47;100.00
50790;BME280;37287;47.554;7.844;2022-11-02T01:22:28;98618.81;;;8.51;100.00
50790;BME280;37287;47.554;7.844;2022-11-02T01:24:55;98609.91;;;8.51;100.00
50790;BME280;37287;47.554;7.844;2022-11-02T01:27:22;98599.91;;;8.51;100.00
50790;BME280;37287;47.554;7.844;2022-11-02T01:29:49;98593.03;;;8.54;100.00
50790;BME280;37287;47.554;7.844;2022-11-02T01:32:15;98601.56;;;8.56;100.00
50790;BME280;37287;47.554;7.844;2022-11-02T01:34:42;98605.16;;;8.60;100.00
50790;BME280;37287;47.554;7.844;2022-11-02T01:37:10;98600.88;;;8.59;100.00
50790;BME280;37287;47.554;7.844;2022-11-02T01:39:37;98599.84;;;8.64;100.00
50790;BME280;37287;47.554;7.844;2022-11-02T01:42:15;98608.75;;;8.64;100.00
50790;BME280;37287;47.554;7.844;2022-11-02T01:44:44;98593.78;;;8.67;100.00
50790;BME280;37287;47.554;7.844;2022-11-02T01:47:18;98591.41;;;8.65;100.00
50790;BME280;37287;47.554;7.844;2022-11-02T01:49:47;98592.63;;;8.68;100.00
50790;BME280;37287;47.554;7.844;2022-11-02T01:52:30;98592.97;;;8.66;100.00
50790;BME280;37287;47.554;7.844;2022-11-02T01:57:34;98599.94;;;8.67;100.00
50790;BME280;37287;47.554;7.844;2022-11-02T02:00:11;98592.28;;;8.69;100.00
50790;BME280;37287;47.554;7.844;2022-11-02T02:02:48;98593.84;;;8.70;100.00
50790;BME280;37287;47.554;7.844;2022-11-02T02:05:19;98587.00;;;8.73;100.00
50790;BME280;37287;47.554;7.844;2022-11-02T02:07:48;98580.13;;;8.75;100.00
50790;BME280;37287;47.554;7.844;2022-11-02T02:10:15;98580.13;;;8.75;100.00
50790;BME280;37287;47.554;7.844;2022-11-02T02:12:43;98585.94;;;8.77;100.00
50790;BME280;37287;47.554;7.844;2022-11-02T02:15:10;98577.50;;;8.79;100.00
50790;BME280;37287;47.554;7.844;2022-11-02T02:17:51;98570.63;;;8.82;100.00
50790;BME280;37287;47.554;7.844;2022-11-02T02:20:45;98572.97;;;8.83;100.00
50790;BME280;37287;47.554;7.844;2022-11-02T02:29:06;98584.66;;;8.87;100.00
50790;BME280;37287;47.554;7.844;2022-11-02T02:31:40;98580.03;;;8.88;100.00
50790;BME280;37287;47.554;7.844;2022-11-02T02:34:21;98578.91;;;8.89;100.00
50790;BME280;37287;47.554;7.844;2022-11-02T02:37:14;98584.75;;;8.91;100.00
50790;BME280;37287;47.554;7.844;2022-11-02T02:47:31;98579.97;;;9.00;100.00
50790;BME280;37287;47.554;7.844;2022-11-02T02:50:16;98576.84;;;8.98;100.00
50790;BME280;37287;47.554;7.844;2022-11-02T02:52:45;98574.56;;;9.00;100.00
50790;BME280;37287;47.554;7.844;2022-11-02T02:55:17;98571.50;;;9.02;100.00
50790;BME280;37287;47.554;7.844;2022-11-02T02:57:47;98571.97;;;9.04;100.00
50790;BME280;37287;47.554;7.844;2022-11-02T03:00:16;98569.25;;;9.04;100.00
50790;BME280;37287;47.554;7.844;2022-11-02T03:02:45;98568.13;;;9.05;100.00
50790;BME280;37287;47.554;7.844;2022-11-02T03:08:02;98573.19;;;9.06;100.00
50790;BME280;37287;47.554;7.844;2022-11-02T03:14:05;98574.84;;;9.11;100.00
50790;BME280;37287;47.554;7.844;2022-11-02T03:19:33;98581.72;;;9.08;100.00
50790;BME280;37287;47.554;7.844;2022-11-02T03:22:10;98580.13;;;9.07;100.00
50790;BME280;37287;47.554;7.844;2022-11-02T03:24:54;98583.53;;;9.04;100.00
50790;BME280;37287;47.554;7.844;2022-11-02T03:27:47;98587.38;;;9.03;100.00
50790;BME280;37287;47.554;7.844;2022-11-02T03:30:22;98586.94;;;9.01;100.00
50790;BME280;37287;47.554;7.844;2022-11-02T03:33:08;98571.44;;;8.98;100.00
50790;BME280;37287;47.554;7.844;2022-11-02T03:35:51;98590.34;;;8.98;100.00
50790;BME280;37287;47.554;7.844;2022-11-02T03:41:12;98588.75;;;8.97;100.00
50790;BME280;37287;47.554;7.844;2022-11-02T03:43:40;98588.00;;;8.97;100.00
50790;BME280;37287;47.554;7.844;2022-11-02T03:46:08;98593.03;;;8.98;100.00
50790;BME280;37287;47.554;7.844;2022-11-02T03:48:40;98593.91;;;9.02;100.00
50790;BME280;37287;47.554;7.844;2022-11-02T03:51:12;98593.91;;;9.02;100.00
50790;BME280;37287;47.554;7.844;2022-11-02T03:53:47;98605.06;;;9.01;100.00
50790;BME280;37287;47.554;7.844;2022-11-02T03:56:20;98607.78;;;9.01;100.00
50790;BME280;37287;47.554;7.844;2022-11-02T03:58:49;98604.53;;;8.95;100.00
50790;BME280;37287;47.554;7.844;2022-11-02T04:01:16;98603.31;;;8.92;100.00
50790;BME280;37287;47.554;7.844;2022-11-02T04:03:45;98614.00;;;8.89;100.00
50790;BME280;37287;47.554;7.844;2022-11-02T04:06:13;98616.72;;;8.89;100.00
50790;BME280;37287;47.554;7.844;2022-11-02T04:08:45;98621.34;;;8.88;100.00
50790;BME280;37287;47.554;7.844;2022-11-02T04:11:12;98621.00;;;8.90;100.00
50790;BME280;37287;47.554;7.844;2022-11-02T04:13:58;98622.56;;;8.91;100.00
50790;BME280;37287;47.554;7.844;2022-11-02T04:16:44;98615.94;;;8.88;100.00
50790;BME280;37287;47.554;7.844;2022-11-02T04:19:10;98622.38;;;8.84;100.00
50790;BME280;37287;47.554;7.844;2022-11-02T04:21:56;98637.00;;;8.83;100.00
50790;BME280;37287;47.554;7.844;2022-11-02T04:24:41;98623.75;;;8.77;100.00
50790;BME280;37287;47.554;7.844;2022-11-02T04:27:26;98626.25;;;8.70;100.00
50790;BME280;37287;47.554;7.844;2022-11-02T04:29:53;98629.31;;;8.69;100.00
50790;BME280;37287;47.554;7.844;2022-11-02T04:32:19;98639.22;;;8.65;100.00
50790;BME280;37287;47.554;7.844;2022-11-02T04:35:05;98632.34;;;8.67;100.00
50790;BME280;37287;47.554;7.844;2022-11-02T04:37:37;98627.63;;;8.64;100.00
50790;BME280;37287;47.554;7.844;2022-11-02T04:40:23;98628.41;;;8.65;100.00
50790;BME280;37287;47.554;7.844;2022-11-02T04:42:50;98631.88;;;8.65;100.00
50790;BME280;37287;47.554;7.844;2022-11-02T04:45:16;98626.06;;;8.63;100.00
50790;BME280;37287;47.554;7.844;2022-11-02T04:47:43;98629.19;;;8.65;100.00
50790;BME280;37287;47.554;7.844;2022-11-02T04:50:10;98637.28;;;8.65;100.00
50790;BME280;37287;47.554;7.844;2022-11-02T04:52:37;98634.16;;;8.63;100.00
50790;BME280;37287;47.554;7.844;2022-11-02T04:55:06;98647.53;;;8.59;100.00
50790;BME280;37287;47.554;7.844;2022-11-02T04:57:34;98652.16;;;8.59;100.00
50790;BME280;37287;47.554;7.844;2022-11-02T05:00:02;98640.94;;;8.57;100.00
50790;BME280;37287;47.554;7.844;2022-11-02T05:02:29;98638.31;;;8.60;100.00
50790;BME280;37287;47.554;7.844;2022-11-02T05:04:55;98643.72;;;8.60;100.00
50790;BME280;37287;47.554;7.844;2022-11-02T05:07:24;98643.03;;;8.64;100.00
50790;BME280;37287;47.554;7.844;2022-11-02T05:09:50;98642.94;;;8.60;100.00
50790;BME280;37287;47.554;7.844;2022-11-02T05:12:17;98649.94;;;8.61;100.00
50790;BME280;37287;47.554;7.844;2022-11-02T05:14:44;98656.88;;;8.62;100.00
50790;BME280;37287;47.554;7.844;2022-11-02T05:17:12;98649.25;;;8.64;100.00
50790;BME280;37287;47.554;7.844;2022-11-02T05:19:39;98653.47;;;8.65;100.00
50790;BME280;37287;47.554;7.844;2022-11-02T05:22:06;98645.72;;;8.64;100.00
50790;BME280;37287;47.554;7.844;2022-11-02T05:24:33;98655.88;;;8.67;100.00
50790;BME280;37287;47.554;7.844;2022-11-02T05:26:59;98658.56;;;8.67;100.00
50790;BME280;37287;47.554;7.844;2022-11-02T05:29:26;98658.22;;;8.68;100.00
50790;BME280;37287;47.554;7.844;2022-11-02T05:31:53;98656.72;;;8.71;100.00
50790;BME280;37287;47.554;7.844;2022-11-02T05:34:19;98659.09;;;8.72;100.00
50790;BME280;37287;47.554;7.844;2022-11-02T05:36:47;98653.00;;;8.75;100.00
50790;BME280;37287;47.554;7.844;2022-11-02T05:39:15;98655.03;;;8.78;100.00
50790;BME280;37287;47.554;7.844;2022-11-02T05:41:42;98664.25;;;8.77;100.00
50790;BME280;37287;47.554;7.844;2022-11-02T05:44:09;98670.75;;;8.76;100.00
50790;BME280;37287;47.554;7.844;2022-11-02T05:46:35;98669.28;;;8.79;100.00
50790;BME280;37287;47.554;7.844;2022-11-02T05:49:04;98669.06;;;8.84;100.00
50790;BME280;37287;47.554;7.844;2022-11-02T05:51:30;98668.38;;;8.87;100.00
50790;BME280;37287;47.554;7.844;2022-11-02T05:53:57;98672.66;;;8.88;100.00
50790;BME280;37287;47.554;7.844;2022-11-02T05:56:23;98672.31;;;8.90;100.00
50790;BME280;37287;47.554;7.844;2022-11-02T05:58:53;98675.88;;;8.94;100.00
50790;BME280;37287;47.554;7.844;2022-11-02T06:01:21;98671.59;;;8.93;100.00
50790;BME280;37287;47.554;7.844;2022-11-02T06:03:48;98681.38;;;8.98;100.00
50790;BME280;37287;47.554;7.844;2022-11-02T06:06:19;98686.00;;;8.97;100.00
50790;BME280;37287;47.554;7.844;2022-11-02T06:08:46;98682.50;;;8.97;100.00
50790;BME280;37287;47.554;7.844;2022-11-02T06:11:13;98690.97;;;8.95;100.00
50790;BME280;37287;47.554;7.844;2022-11-02T06:13:42;98692.50;;;8.96;100.00
50790;BME280;37287;47.554;7.844;2022-11-02T06:16:11;98699.50;;;8.97;100.00
50790;BME280;37287;47.554;7.844;2022-11-02T06:18:47;98693.22;;;8.93;100.00
50790;BME280;37287;47.554;7.844;2022-11-02T06:21:14;98700.19;;;8.94;100.00
50790;BME280;37287;47.554;7.844;2022-11-02T06:23:40;98704.72;;;8.90;100.00
50790;BME280;37287;47.554;7.844;2022-11-02T06:26:10;98716.97;;;8.87;100.00
50790;BME280;37287;47.554;7.844;2022-11-02T06:28:40;98713.50;;;8.87;100.00
50790;BME280;37287;47.554;7.844;2022-11-02T06:31:07;98718.91;;;8.87;100.00
50790;BME280;37287;47.554;7.844;2022-11-02T06:33:33;98719.31;;;8.89;100.00
50790;BME280;37287;47.554;7.844;2022-11-02T06:36:02;98723.25;;;8.91;100.00
50790;BME280;37287;47.554;7.844;2022-11-02T06:38:29;98723.38;;;8.95;100.00
50790;BME280;37287;47.554;7.844;2022-11-02T06:41:00;98728.09;;;8.98;100.00
50790;BME280;37287;47.554;7.844;2022-11-02T06:43:32;98725.47;;;9.02;100.00
50790;BME280;37287;47.554;7.844;2022-11-02T06:45:59;98740.66;;;9.06;100.00
50790;BME280;37287;47.554;7.844;2022-11-02T06:48:26;98733.44;;;9.10;100.00
50790;BME280;37287;47.554;7.844;2022-11-02T06:51:00;98738.84;;;9.10;100.00
50790;BME280;37287;47.554;7.844;2022-11-02T06:53:31;98730.81;;;9.14;100.00
50790;BME280;37287;47.554;7.844;2022-11-02T06:56:00;98744.44;;;9.18;100.00
50790;BME280;37287;47.554;7.844;2022-11-02T06:58:26;98746.44;;;9.21;100.00
50790;BME280;37287;47.554;7.844;2022-11-02T07:00:57;98750.47;;;9.27;100.00
50790;BME280;37287;47.554;7.844;2022-11-02T07:03:25;98757.63;;;9.35;100.00
50790;BME280;37287;47.554;7.844;2022-11-02T07:05:54;98760.09;;;9.40;100.00
50790;BME280;37287;47.554;7.844;2022-11-02T07:08:21;98761.84;;;9.49;100.00
50790;BME280;37287;47.554;7.844;2022-11-02T07:10:48;98769.00;;;9.57;100.00
50790;BME280;37287;47.554;7.844;2022-11-02T07:13:14;98770.34;;;9.63;100.00
50790;BME280;37287;47.554;7.844;2022-11-02T07:15:41;98777.47;;;9.71;100.00
50790;BME280;37287;47.554;7.844;2022-11-02T07:18:13;98774.97;;;9.78;100.00
50790;BME280;37287;47.554;7.844;2022-11-02T07:20:42;98781.00;;;9.88;100.00
50790;BME280;37287;47.554;7.844;2022-11-02T07:23:08;98775.75;;;9.95;100.00
50790;BME280;37287;47.554;7.844;2022-11-02T07:25:35;98779.78;;;10.01;100.00
50790;BME280;37287;47.554;7.844;2022-11-02T07:28:02;98776.81;;;10.06;100.00
50790;BME280;37287;47.554;7.844;2022-11-02T07:30:31;98778.91;;;10.13;100.00
50790;BME280;37287;47.554;7.844;2022-11-02T07:32:58;98781.34;;;10.18;100.00
50790;BME280;37287;47.554;7.844;2022-11-02T07:35:25;98786.13;;;10.25;100.00
50790;BME280;37287;47.554;7.844;2022-11-02T07:38:04;98787.81;;;10.29;100.00
50790;BME280;37287;47.554;7.844;2022-11-02T07:40:33;98793.28;;;10.33;100.00
50790;BME280;37287;47.554;7.844;2022-11-02T07:43:00;98796.53;;;10.39;100.00
50790;BME280;37287;47.554;7.844;2022-11-02T07:45:27;98796.69;;;10.46;100.00
50790;BME280;37287;47.554;7.844;2022-11-02T07:47:57;98796.88;;;10.53;100.00
50790;BME280;37287;47.554;7.844;2022-11-02T07:50:24;98795.63;;;10.66;100.00
50790;BME280;37287;47.554;7.844;2022-11-02T07:52:54;98798.22;;;10.79;100.00
50790;BME280;37287;47.554;7.844;2022-11-02T07:55:26;98800.00;;;10.91;100.00
50790;BME280;37287;47.554;7.844;2022-11-02T07:57:59;98812.56;;;10.99;100.00
50790;BME280;37287;47.554;7.844;2022-11-02T08:00:28;98808.88;;;11.07;100.00
50790;BME280;37287;47.554;7.844;2022-11-02T08:02:56;98807.44;;;11.13;100.00
50790;BME280;37287;47.554;7.844;2022-11-02T08:05:24;98804.59;;;11.26;100.00
50790;BME280;37287;47.554;7.844;2022-11-02T08:07:59;98803.75;;;11.41;100.00
50790;BME280;37287;47.554;7.844;2022-11-02T08:10:30;98805.13;;;11.55;100.00
50790;BME280;37287;47.554;7.844;2022-11-02T08:13:08;98808.84;;;11.66;100.00
50790;BME280;37287;47.554;7.844;2022-11-02T08:15:36;98815.69;;;11.79;100.00
50790;BME280;37287;47.554;7.844;2022-11-02T08:18:08;98819.78;;;11.93;100.00
50790;BME280;37287;47.554;7.844;2022-11-02T08:20:37;98817.16;;;11.96;100.00
50790;BME280;37287;47.554;7.844;2022-11-02T08:23:04;98820.28;;;11.98;100.00
50790;BME280;37287;47.554;7.844;2022-11-02T08:25:31;98823.94;;;12.06;100.00
50790;BME280;37287;47.554;7.844;2022-11-02T08:27:58;98817.59;;;12.21;100.00
50790;BME280;37287;47.554;7.844;2022-11-02T08:30:27;98819.59;;;12.78;100.00
50790;BME280;37287;47.554;7.844;2022-11-02T08:33:12;98831.53;;;13.31;100.00
50790;BME280;37287;47.554;7.844;2022-11-02T08:35:43;98829.22;;;14.49;100.00
50790;BME280;37287;47.554;7.844;2022-11-02T08:38:11;98833.06;;;14.44;97.69
50790;BME280;37287;47.554;7.844;2022-11-02T08:40:40;98840.19;;;14.12;93.85
50790;BME280;37287;47.554;7.844;2022-11-02T08:43:12;98844.75;;;14.04;94.29
50790;BME280;37287;47.554;7.844;2022-11-02T08:45:40;98834.53;;;13.90;93.52
50790;BME280;37287;47.554;7.844;2022-11-02T08:48:27;98837.09;;;13.75;91.91
50790;BME280;37287;47.554;7.844;2022-11-02T08:50:54;98829.28;;;13.70;92.39
50790;BME280;37287;47.554;7.844;2022-11-02T08:53:21;98837.91;;;13.80;94.30
50790;BME280;37287;47.554;7.844;2022-11-02T08:55:50;98837.53;;;13.81;92.82
50790;BME280;37287;47.554;7.844;2022-11-02T08:58:17;98838.13;;;13.60;91.83
50790;BME280;37287;47.554;7.844;2022-11-02T09:00:43;98826.19;;;13.72;93.71
50790;BME280;37287;47.554;7.844;2022-11-02T09:03:11;98828.59;;;13.77;94.30
50790;BME280;37287;47.554;7.844;2022-11-02T09:05:41;98833.88;;;14.04;95.15
50790;BME280;37287;47.554;7.844;2022-11-02T09:08:14;98825.22;;;14.36;92.02
50790;BME280;37287;47.554;7.844;2022-11-02T09:10:42;98821.16;;;14.64;90.88
50790;BME280;37287;47.554;7.844;2022-11-02T09:13:13;98817.69;;;14.70;89.93
50790;BME280;37287;47.554;7.844;2022-11-02T09:15:40;98830.00;;;14.53;87.74
50790;BME280;37287;47.554;7.844;2022-11-02T09:18:07;98826.34;;;14.31;87.06
50790;BME280;37287;47.554;7.844;2022-11-02T09:20:35;98832.06;;;14.19;87.02
50790;BME280;37287;47.554;7.844;2022-11-02T09:23:01;98828.13;;;14.13;88.57
50790;BME280;37287;47.554;7.844;2022-11-02T09:25:28;98826.53;;;14.08;86.34
50790;BME280;37287;47.554;7.844;2022-11-02T09:27:56;98829.25;;;14.08;84.65
50790;BME280;37287;47.554;7.844;2022-11-02T09:30:24;98828.91;;;14.13;86.55
50790;BME280;37287;47.554;7.844;2022-11-02T09:32:55;98822.72;;;14.16;86.02
50790;BME280;37287;47.554;7.844;2022-11-02T09:35:23;98825.84;;;14.18;86.19
50790;BME280;37287;47.554;7.844;2022-11-02T09:37:53;98824.25;;;14.14;86.54
50790;BME280;37287;47.554;7.844;2022-11-02T09:40:24;98818.34;;;14.08;86.49
50790;BME280;37287;47.554;7.844;2022-11-02T09:45:47;98816.16;;;14.24;87.57
50790;BME280;37287;47.554;7.844;2022-11-02T09:48:21;98805.81;;;14.44;87.91
50790;BME280;37287;47.554;7.844;2022-11-02T09:51:04;98804.06;;;14.70;86.65
50790;BME280;37287;47.554;7.844;2022-11-02T09:56:29;98815.03;;;14.81;85.13
50790;BME280;37287;47.554;7.844;2022-11-02T09:59:00;98811.88;;;14.72;86.75
50790;BME280;37287;47.554;7.844;2022-11-02T10:15:20;98795.00;;;14.55;87.29
50790;BME280;37287;47.554;7.844;2022-11-02T10:17:53;98790.41;;;14.70;86.49
50790;BME280;37287;47.554;7.844;2022-11-02T10:22:58;98787.50;;;15.08;85.88
50790;BME280;37287;47.554;7.844;2022-11-02T10:25:26;98777.06;;;15.28;85.04
50790;BME280;37287;47.554;7.844;2022-11-02T10:28:00;98779.81;;;15.32;83.68
50790;BME280;37287;47.554;7.844;2022-11-02T10:30:30;98778.69;;;15.54;84.14
50790;BME280;37287;47.554;7.844;2022-11-02T10:32:57;98770.16;;;15.77;82.24
50790;BME280;37287;47.554;7.844;2022-11-02T10:38:46;98772.13;;;15.98;79.16
50790;BME280;37287;47.554;7.844;2022-11-02T10:44:11;98764.28;;;16.62;77.31
50790;BME280;37287;47.554;7.844;2022-11-02T10:47:00;98767.00;;;16.73;76.29
50790;BME280;37287;47.554;7.844;2022-11-02T10:52:12;98765.78;;;16.95;74.63
50790;BME280;37287;47.554;7.844;2022-11-02T10:54:39;98758.34;;;16.92;76.18
50790;BME280;37287;47.554;7.844;2022-11-02T10:57:13;98758.72;;;16.91;75.08
50790;BME280;37287;47.554;7.844;2022-11-02T10:59:44;98745.78;;;17.02;77.07
50790;BME280;37287;47.554;7.844;2022-11-02T11:02:12;98754.00;;;17.02;76.28
50790;BME280;37287;47.554;7.844;2022-11-02T11:04:40;98747.69;;;17.16;75.50
50790;BME280;37287;47.554;7.844;2022-11-02T11:07:25;98741.09;;;17.06;72.04
50790;BME280;37287;47.554;7.844;2022-11-02T11:09:56;98739.91;;;17.07;74.02
50790;BME280;37287;47.554;7.844;2022-11-02T11:12:31;98736.78;;;17.12;74.31
50790;BME280;37287;47.554;7.844;2022-11-02T11:15:02;98739.84;;;17.22;75.48
50790;BME280;37287;47.554;7.844;2022-11-02T11:17:51;98731.63;;;17.25;75.47
50790;BME280;37287;47.554;7.844;2022-11-02T11:20:39;98734.03;;;17.12;75.54
50790;BME280;37287;47.554;7.844;2022-11-02T11:23:19;98728.84;;;17.29;75.21
50790;BME280;37287;47.554;7.844;2022-11-02T11:26:29;98729.66;;;17.29;70.91
50790;BME280;37287;47.554;7.844;2022-11-02T11:28:56;98721.75;;;17.39;74.48
50790;BME280;37287;47.554;7.844;2022-11-02T11:31:23;98720.19;;;17.45;74.30
50790;BME280;37287;47.554;7.844;2022-11-02T11:33:53;98721.31;;;17.51;74.60
50790;BME280;37287;47.554;7.844;2022-11-02T11:36:30;98720.44;;;17.61;73.67
50790;BME280;37287;47.554;7.844;2022-11-02T11:39:27;98724.06;;;17.47;69.85
50790;BME280;37287;47.554;7.844;2022-11-02T11:41:57;98716.19;;;17.53;73.77
50790;BME280;37287;47.554;7.844;2022-11-02T11:44:25;98707.38;;;17.83;73.07
50790;BME280;37287;47.554;7.844;2022-11-02T11:46:56;98705.59;;;18.84;68.95
50790;BME280;37287;47.554;7.844;2022-11-02T11:49:35;98698.06;;;18.92;65.11
50790;BME280;37287;47.554;7.844;2022-11-02T11:52:30;98693.13;;;18.79;69.12
50790;BME280;37287;47.554;7.844;2022-11-02T11:55:00;98702.47;;;18.82;66.72
50790;BME280;37287;47.554;7.844;2022-11-02T11:57:30;98699.53;;;19.00;67.94
50790;BME280;37287;47.554;7.844;2022-11-02T11:59:59;98700.38;;;19.24;68.18
50790;BME280;37287;47.554;7.844;2022-11-02T12:02:31;98690.44;;;19.61;66.75
50790;BME280;37287;47.554;7.844;2022-11-02T12:07:37;98693.19;;;20.52;63.96
50790;BME280;37287;47.554;7.844;2022-11-02T12:18:30;98674.47;;;20.67;63.03
50790;BME280;37287;47.554;7.844;2022-11-02T12:21:04;98673.91;;;20.32;62.77
50790;BME280;37287;47.554;7.844;2022-11-02T12:23:45;98671.88;;;20.36;63.20
50790;BME280;37287;47.554;7.844;2022-11-02T12:28:57;98666.09;;;20.10;64.51
50790;BME280;37287;47.554;7.844;2022-11-02T12:31:38;98662.06;;;20.55;61.75
50790;BME280;37287;47.554;7.844;2022-11-02T12:46:45;98641.06;;;20.25;58.43
50790;BME280;37287;47.554;7.844;2022-11-02T12:55:00;98643.41;;;19.32;61.05
50790;BME280;37287;47.554;7.844;2022-11-02T12:57:32;98642.84;;;18.86;62.82
50790;BME280;37287;47.554;7.844;2022-11-02T13:00:06;98632.03;;;18.75;65.15
50790;BME280;37287;47.554;7.844;2022-11-02T13:02:54;98630.31;;;18.88;61.16
50790;BME280;37287;47.554;7.844;2022-11-02T13:05:36;98630.47;;;19.05;63.23
50790;BME280;37287;47.554;7.844;2022-11-02T13:08:20;98628.50;;;19.05;63.50
50790;BME280;37287;47.554;7.844;2022-11-02T13:10:52;98625.00;;;19.05;64.45
50790;BME280;37287;47.554;7.844;2022-11-02T13:13:29;98613.47;;;19.14;65.03
50790;BME280;37287;47.554;7.844;2022-11-02T13:15:58;98618.13;;;19.17;65.11
50790;BME280;37287;47.554;7.844;2022-11-02T13:18:32;98606.53;;;19.05;63.11
50790;BME280;37287;47.554;7.844;2022-11-02T13:21:02;98611.00;;;18.96;62.63
50790;BME280;37287;47.554;7.844;2022-11-02T13:26:01;98612.97;;;18.95;64.85
50790;BME280;37287;47.554;7.844;2022-11-02T13:28:35;98609.78;;;19.00;64.35
50790;BME280;37287;47.554;7.844;2022-11-02T13:31:10;98607.88;;;19.21;63.89
50790;BME280;37287;47.554;7.844;2022-11-02T13:33:47;98615.28;;;19.24;63.26
50790;BME280;37287;47.554;7.844;2022-11-02T13:36:14;98603.78;;;19.33;63.27
50790;BME280;37287;47.554;7.844;2022-11-02T13:38:48;98599.28;;;19.19;62.35
50790;BME280;37287;47.554;7.844;2022-11-02T13:41:42;98588.63;;;19.24;60.54
50790;BME280;37287;47.554;7.844;2022-11-02T13:50:10;98581.19;;;19.69;60.86
50790;BME280;37287;47.554;7.844;2022-11-02T13:52:41;98576.22;;;19.40;63.19
50790;BME280;37287;47.554;7.844;2022-11-02T13:55:44;98580.31;;;19.52;57.31
50790;BME280;37287;47.554;7.844;2022-11-02T13:58:22;98580.91;;;19.39;59.10
50790;BME280;37287;47.554;7.844;2022-11-02T14:00:58;98576.97;;;19.17;61.63
50790;BME280;37287;47.554;7.844;2022-11-02T14:03:30;98576.16;;;18.93;63.39
50790;BME280;37287;47.554;7.844;2022-11-02T14:06:00;98579.44;;;18.80;63.53
50790;BME280;37287;47.554;7.844;2022-11-02T14:08:36;98580.06;;;18.33;63.53
50790;BME280;37287;47.554;7.844;2022-11-02T14:11:23;98576.47;;;18.06;61.78
50790;BME280;37287;47.554;7.844;2022-11-02T14:29:53;98559.50;;;17.80;64.67
50790;BME280;37287;47.554;7.844;2022-11-02T14:35:02;98556.28;;;17.47;63.62
50790;BME280;37287;47.554;7.844;2022-11-02T14:38:11;98563.72;;;16.97;62.81
50790;BME280;37287;47.554;7.844;2022-11-02T14:47:14;98553.38;;;16.63;65.66
50790;BME280;37287;47.554;7.844;2022-11-02T14:49:48;98555.72;;;16.61;66.96
50790;BME280;37287;47.554;7.844;2022-11-02T14:52:27;98551.03;;;16.65;66.00
50790;BME280;37287;47.554;7.844;2022-11-02T14:55:02;98548.69;;;16.60;67.18
50790;BME280;37287;47.554;7.844;2022-11-02T14:57:38;98544.50;;;16.41;66.50
50790;BME280;37287;47.554;7.844;2022-11-02T15:00:22;98547.25;;;16.34;65.84
50790;BME280;37287;47.554;7.844;2022-11-02T15:02:49;98545.75;;;16.26;69.09
50790;BME280;37287;47.554;7.844;2022-11-02T15:05:37;98541.09;;;16.19;67.07
50790;BME280;37287;47.554;7.844;2022-11-02T15:18:36;98530.31;;;15.69;69.78
50790;BME280;37287;47.554;7.844;2022-11-02T15:23:45;98532.28;;;15.57;69.90
50790;BME280;37287;47.554;7.844;2022-11-02T15:26:26;98526.84;;;15.43;70.38
50790;BME280;37287;47.554;7.844;2022-11-02T15:28:58;98522.94;;;15.29;72.13
50790;BME280;37287;47.554;7.844;2022-11-02T15:31:28;98521.03;;;15.12;73.03
50790;BME280;37287;47.554;7.844;2022-11-02T15:33:57;98521.78;;;14.91;74.44
50790;BME280;37287;47.554;7.844;2022-11-02T15:36:32;98518.28;;;14.65;75.59
50790;BME280;37287;47.554;7.844;2022-11-02T15:39:02;98518.56;;;14.42;76.65
50790;BME280;37287;47.554;7.844;2022-11-02T15:41:51;98512.66;;;14.15;76.94